Latest Weather Observations for Combienbar

IDV60801

Issued at 8:03 am EST Wednesday 26 April 2017 (issued every 30 minutes, with the page automatically refreshed every 10 minutes)

About weather observations | Map of weather stations | Latest weather observations for VIC | Other Formats
Station Details ID: 084143 Name: COMBIENBAR AWS Lat: -37.34 Lon: 149.02 Height: 640.0 m
Data from the previous 72 hours. | See also: Recent months at Combienbar
Date/Time
EST
Temp
°C
App
Temp
°C
Dew
Point
°C
Rel
Hum
%
Delta-T
°C
Wind Press
QNH
hPa
Press
MSL
hPa
Rain since
9am
mm
Dir  Spd
km/h
Gust
km/h
Spd
kts
Gust
kts
26/08:00am 12.1 10.8 5.9 66 3.0 NW 2 7 1 4 1004.9 1003.6 2.2
26/07:30am 10.7 9.5 8.1 84 1.3 NNE 4 7 2 4 1004.8 1003.5 2.2
26/07:00am 10.7 9.6 6.8 77 1.9 NW 2 7 1 4 1004.8 1003.5 2.0
26/06:30am 10.6 9.8 8.0 84 1.3 E 2 4 1 2 1004.4 1003.1 2.0
26/06:00am 11.5 10.7 8.2 80 1.7 WNW 2 13 1 7 1004.8 1003.5 2.0
26/05:30am 12.5 10.7 7.0 69 2.7 NNW 6 11 3 6 1004.3 1003.0 2.0
26/05:00am 11.5 10.2 7.8 78 1.9 NNE 4 9 2 5 1003.9 1002.6 2.0
26/04:30am 10.7 10.3 8.3 85 1.2 CALM 0 0 0 0 1003.9 1002.6 2.0
26/04:00am 11.9 10.6 7.8 76 2.1 N 4 13 2 7 1004.1 1002.8 2.0
26/03:30am 12.4 10.4 7.3 71 2.6 NNW 7 15 4 8 1004.2 1002.9 2.0
26/03:00am 12.8 10.9 7.5 70 2.7 NW 7 17 4 9 1004.6 1003.2 2.0
26/02:30am 12.2 10.7 8.3 77 2.0 NW 6 13 3 7 1004.9 1003.6 2.0
26/02:00am 11.5 11.1 11.0 97 0.3 E 4 15 2 8 1005.2 1003.9 1.8
26/01:30am 10.6 10.3 10.1 97 0.3 E 2 4 1 2 1005.6 1004.3 1.8
26/01:00am 11.0 11.2 10.5 97 0.3 CALM 0 0 0 0 1005.9 1004.6 1.8
26/12:30am 11.4 11.7 10.9 97 0.3 CALM 0 0 0 0 1006.0 1004.8 1.8
26/12:00am 11.6 12.0 11.1 97 0.3 CALM 0 0 0 0 1006.0 1004.8 1.8
 
Date/Time
EST
Temp
°C
App
Temp
°C
Dew
Point
°C
Rel
Hum
%
Delta-T
°C
Wind Press
QNH
hPa
Press
MSL
hPa
Rain since
9am
mm
Dir  Spd
km/h
Gust
km/h
Spd
kts
Gust
kts
25/11:30pm 11.6 12.0 11.1 97 0.3 CALM 0 0 0 0 1006.5 1005.2 1.8
25/11:00pm 11.7 12.1 11.2 97 0.3 CALM 0 0 0 0 1006.8 1005.5 1.8
25/10:30pm 11.9 12.3 11.4 97 0.3 CALM 0 0 0 0 1007.0 1005.7 1.8
25/10:00pm 11.8 12.2 11.3 97 0.3 CALM 0 0 0 0 1007.1 1005.8 1.6
25/09:30pm 12.0 12.5 11.5 97 0.3 CALM 0 0 0 0 1007.3 1006.0 1.6
25/09:00pm 12.0 12.5 11.5 97 0.3 CALM 0 0 0 0 1007.5 1006.3 1.6
25/08:30pm 12.2 12.7 11.7 97 0.3 CALM 0 0 0 0 1007.6 1006.4 1.6
25/08:00pm 12.2 12.7 11.7 97 0.3 CALM 0 0 0 0 1007.5 1006.3 1.6
25/07:30pm 12.1 12.6 11.5 96 0.3 CALM 0 0 0 0 1007.4 1006.2 1.6
25/07:00pm 12.1 12.2 11.5 96 0.3 SW 2 4 1 2 1007.2 1005.9 1.4
25/06:30pm 12.1 12.2 11.5 96 0.3 SW 2 6 1 3 1007.0 1005.7 1.4
25/06:00pm 12.3 12.0 11.5 95 0.4 SW 4 9 2 5 1006.7 1005.4 1.2
25/05:30pm 13.5 13.0 12.1 91 0.8 SSW 6 13 3 7 1006.2 1004.9 1.0
25/05:00pm 15.8 16.2 11.4 75 2.5 CALM 0 6 0 3 1005.6 1004.3 1.0
25/04:30pm 15.7 16.0 12.1 79 2.0 SW 2 6 1 3 1005.4 1004.1 1.0
25/04:00pm 16.4 16.6 12.0 75 2.5 NW 2 9 1 5 1005.2 1003.9 0.8
25/03:30pm 15.7 16.5 12.5 81 1.8 CALM 0 6 0 3 1005.3 1004.0 0.8
25/03:00pm 15.5 16.4 13.0 85 1.4 CALM 0 4 0 2 1005.5 1004.2 0.8
25/02:30pm 15.6 16.4 13.8 89 1.0 ESE 2 6 1 3 1005.6 1004.3 0.8
25/02:00pm 15.5 16.5 14.2 92 0.8 N 2 4 1 2 1005.6 1004.3 0.8
25/01:30pm 15.5 16.6 14.7 95 0.5 NNE 2 6 1 3 1006.0 1004.8 0.6
25/01:00pm 15.2 16.3 13.6 90 0.9 CALM 0 0 0 0 1006.6 1005.3 0.4
25/12:30pm 15.4 16.5 13.6 89 1.0 CALM 0 0 0 0 1007.0 1005.7 0.2
25/12:00pm 16.0 16.9 12.9 82 1.8 CALM 0 0 0 0 1007.5 1006.3 0.2
25/11:30am 16.2 17.2 13.1 82 1.8 CALM 0 4 0 2 1008.2 1006.9 0.0
25/11:00am 16.6 17.4 12.4 76 2.4 CALM 0 0 0 0 1008.8 1007.6 0.0
25/10:30am 16.9 17.1 12.0 73 2.8 WNW 2 9 1 5 1008.9 1007.7 0.0
25/10:00am 16.6 15.9 11.3 71 3.0 NNW 6 19 3 10 1009.3 1008.1 0.0
25/09:30am 16.0 15.7 11.4 74 2.6 N 4 11 2 6 1009.6 1008.3 0.0
25/09:00am 14.9 14.9 11.1 78 2.1 NE 2 4 1 2 1009.6 1008.3 0.0
25/08:30am 15.3 15.1 10.5 73 2.6 NW 2 9 1 5 1009.8 1008.5 0.0
25/08:00am 14.2 13.9 10.0 76 2.3 NNE 2 6 1 3 1009.7 1008.4 0.0
25/07:30am 14.3 14.0 10.1 76 2.3 NNE 2 6 1 3 1009.9 1008.6 0.0
25/07:00am 14.3 13.6 10.1 76 2.3 NNE 4 9 2 5 1009.7 1008.4 0.0
25/06:30am 15.0 14.7 10.0 72 2.7 SW 2 7 1 4 1009.8 1008.5 0.0
25/06:00am 14.9 14.5 9.7 71 2.8 SE 2 6 1 3 1010.0 1008.7 0.0
25/05:30am 14.8 14.0 9.8 72 2.7 N 4 9 2 5 1010.4 1009.2 0.0
25/05:00am 15.0 14.6 9.6 70 2.9 NNW 2 7 1 4 1010.5 1009.3 0.0
25/04:30am 15.5 15.0 9.4 67 3.3 ENE 2 6 1 3 1010.6 1009.4 0.0
25/04:00am 14.6 13.7 9.4 71 2.8 S 4 11 2 6 1010.7 1009.5 0.0
25/03:30am 14.7 13.4 9.1 69 3.0 ESE 6 22 3 12 1010.7 1009.5 0.0
25/03:00am 14.2 13.3 9.2 72 2.6 SW 4 15 2 8 1011.7 1010.5 0.0
25/02:30am 14.0 13.4 8.8 71 2.7 S 2 7 1 4 1012.2 1011.0 0.0
25/02:00am 13.9 13.3 8.9 72 2.6 SE 2 6 1 3 1013.0 1011.8 0.0
25/01:30am 13.8 13.5 8.8 72 2.6 CALM 0 2 0 1 1013.5 1012.3 0.0
25/01:00am 15.8 14.7 8.3 61 3.9 NE 4 9 2 5 1014.1 1012.9 0.0
25/12:30am 15.0 14.3 8.5 65 3.4 S 2 9 1 5 1014.8 1013.6 0.0
25/12:00am 15.9 15.1 8.2 60 4.0 WNW 2 7 1 4 1015.5 1014.4 0.0
 
Date/Time
EST
Temp
°C
App
Temp
°C
Dew
Point
°C
Rel
Hum
%
Delta-T
°C
Wind Press
QNH
hPa
Press
MSL
hPa
Rain since
9am
mm
Dir  Spd
km/h
Gust
km/h
Spd
kts
Gust
kts
24/11:30pm 16.8 15.0 8.0 56 4.6 N 7 19 4 10 1015.9 1014.8 0.0
24/11:00pm 16.4 14.1 7.6 56 4.6 N 9 19 5 10 1016.4 1015.2 0.0
24/10:30pm 16.4 14.7 7.6 56 4.6 N 6 13 3 7 1016.8 1015.6 0.0
24/10:00pm 16.2 14.5 8.2 59 4.2 N 7 13 4 7 1017.2 1016.1 0.0
24/09:30pm 16.8 14.7 8.2 57 4.5 N 9 19 5 10 1017.6 1016.5 0.0
24/09:00pm 16.3 14.7 8.8 61 4.0 N 7 19 4 10 1017.7 1016.6 0.0
24/08:30pm 15.1 14.9 10.3 73 2.6 NW 2 4 1 2 1017.6 1016.5 0.0
24/08:00pm 15.2 15.0 10.4 73 2.6 NNE 2 9 1 5 1017.6 1016.5 0.0
24/07:30pm 15.1 15.0 10.9 76 2.3 N 2 9 1 5 1017.7 1016.6 0.0
24/07:00pm 15.2 14.4 11.2 77 2.2 NNE 6 9 3 5 1017.7 1016.6 0.0
24/06:30pm 15.7 16.1 11.1 74 2.5 CALM 0 4 0 2 1017.9 1016.7 0.0
24/06:00pm 16.3 16.6 11.0 71 2.9 CALM 0 0 0 0 1017.9 1016.7 0.0
24/05:30pm 16.5 16.9 11.2 71 2.9 CALM 0 0 0 0 1018.0 1016.8 0.0
24/05:00pm 16.9 17.2 11.0 68 3.3 CALM 0 0 0 0 1018.0 1016.8 0.0
24/04:30pm 17.9 18.1 10.5 62 4.1 CALM 0 0 0 0 1018.0 1016.8 0.0
24/04:00pm 19.6 19.7 10.3 55 5.2 CALM 0 0 0 0 1018.2 1017.0 0.0
24/03:30pm 20.0 20.3 11.0 56 5.1 CALM 0 0 0 0 1018.2 1017.0 0.0
24/03:00pm 20.0 20.2 10.4 54 5.3 CALM 0 0 0 0 1018.4 1017.3 0.0
24/02:30pm 20.4 20.8 11.3 56 5.2 CALM 0 0 0 0 1018.4 1017.3 0.0
24/02:00pm 21.2 21.6 12.6 58 5.0 NE 2 4 1 2 1018.6 1017.5 0.0
24/01:30pm 18.6 19.3 12.1 66 3.7 CALM 0 0 0 0 1019.1 1018.0 0.0
24/01:00pm 19.8 20.3 11.6 59 4.7 CALM 0 6 0 3 1019.7 1018.6 0.0
24/12:30pm 19.8 20.5 12.3 62 4.3 CALM 0 6 0 3 1020.1 1019.0 0.0
24/12:00pm 18.9 19.4 11.5 62 4.2 CALM 0 2 0 1 1020.7 1019.6 0.0
24/11:30am 19.1 19.8 12.1 64 4.0 CALM 0 0 0 0 1021.3 1020.2 0.0
24/11:00am 18.7 19.0 11.0 61 4.3 CALM 0 0 0 0 1021.7 1020.6 0.0
24/10:30am 18.5 18.9 11.1 62 4.1 CALM 0 0 0 0 1022.0 1020.9 0.0
24/10:00am 18.4 18.9 11.7 65 3.8 CALM 0 0 0 0 1022.2 1021.1 0.0
24/09:30am 17.4 17.9 11.7 69 3.2 CALM 0 2 0 1 1022.3 1021.3 0.0
24/09:00am 18.0 18.9 12.9 72 2.9 CALM 0 0 0 0 1022.4 1021.4 0.0
24/08:30am 15.3 15.8 11.7 79 2.0 CALM 0 0 0 0 1022.6 1021.6 0.0
24/08:00am 14.1 14.5 11.3 83 1.5 CALM 0 0 0 0 1022.6 1021.6 0.0
24/07:30am 14.3 14.4 10.3 77 2.2 CALM 0 4 0 2 1022.5 1021.5 0.0
24/07:00am 13.8 13.9 10.2 79 1.9 CALM 0 0 0 0 1022.5 1021.5 0.0
24/06:30am 13.4 13.4 9.8 79 1.9 CALM 0 0 0 0 1022.5 1021.5 0.0
24/06:00am 13.2 13.2 9.8 80 1.8 CALM 0 0 0 0 1022.4 1021.4 0.0
24/05:30am 13.1 13.2 10.1 82 1.6 CALM 0 4 0 2 1022.4 1021.4 0.0
24/05:00am 12.8 12.9 10.2 84 1.4 CALM 0 0 0 0 1022.4 1021.4 0.0
24/04:30am 13.2 13.3 10.2 82 1.6 CALM 0 0 0 0 1022.4 1021.4 0.0
24/04:00am 13.1 13.2 10.3 83 1.5 CALM 0 0 0 0 1022.3 1021.3 0.0
24/03:30am 13.3 13.5 10.5 83 1.5 CALM 0 0 0 0 1022.5 1021.5 0.0
24/03:00am 12.9 13.1 10.6 86 1.2 CALM 0 0 0 0 1022.6 1021.6 0.0
24/02:30am 12.8 13.0 10.7 87 1.1 CALM 0 0 0 0 1023.0 1021.9 0.0
24/02:00am 12.8 13.1 10.9 88 1.0 CALM 0 0 0 0 1023.3 1022.2 0.0
24/01:30am 12.9 13.2 10.8 87 1.1 CALM 0 0 0 0 1023.5 1022.4 0.0
24/01:00am 13.2 13.5 10.9 86 1.2 CALM 0 0 0 0 1023.6 1022.5 0.0
24/12:30am 13.0 13.5 11.7 92 0.7 CALM 0 4 0 2 1023.9 1022.9 0.0
24/12:00am 13.5 14.3 12.6 94 0.5 CALM 0 0 0 0 1024.3 1023.3 0.0
 
Date/Time
EST
Temp
°C
App
Temp
°C
Dew
Point
°C
Rel
Hum
%
Delta-T
°C
Wind Press
QNH
hPa
Press
MSL
hPa
Rain since
9am
mm
Dir  Spd
km/h
Gust
km/h
Spd
kts
Gust
kts
23/11:30pm 13.4 14.2 12.6 95 0.4 CALM 0 0 0 0 1024.8 1023.7 0.0
23/11:00pm 13.4 14.3 12.8 96 0.3 CALM 0 0 0 0 1025.1 1024.1 0.0
23/10:30pm 13.4 14.3 12.8 96 0.3 CALM 0 0 0 0 1025.2 1024.2 0.0
23/10:00pm 13.5 14.4 12.9 96 0.3 CALM 0 0 0 0 1025.3 1024.3 0.0
23/09:30pm 13.9 14.9 13.3 96 0.3 CALM 0 0 0 0 1025.3 1024.3 0.0
23/09:00pm 14.2 15.3 13.6 96 0.3 CALM 0 0 0 0 1025.5 1024.5 0.0
23/08:30pm 14.2 15.3 13.6 96 0.3 CALM 0 0 0 0 1025.4 1024.4 0.0
23/08:00pm 14.4 15.6 13.8 96 0.3 CALM 0 0 0 0 1025.1 1024.1 0.0
23/07:30pm 14.2 15.3 13.6 96 0.3 CALM 0 0 0 0 1025.0 1023.9 0.0
23/07:00pm 14.5 15.7 13.9 96 0.3 CALM 0 0 0 0 1024.7 1023.6 0.0
23/06:30pm 14.7 15.9 13.7 94 0.6 CALM 0 0 0 0 1024.4 1023.4 0.0
23/06:00pm 14.8 15.9 13.5 92 0.7 CALM 0 0 0 0 1024.2 1023.2 0.0
23/05:30pm 15.1 16.1 13.3 89 1.0 CALM 0 0 0 0 1024.1 1023.1 0.0
23/05:00pm 15.4 16.3 12.9 85 1.4 CALM 0 0 0 0 1023.9 1022.9 0.0
23/04:30pm 15.7 16.6 13.0 84 1.5 CALM 0 0 0 0 1023.8 1022.8 0.0
23/04:00pm 16.3 17.1 12.7 79 2.0 CALM 0 0 0 0 1023.8 1022.8 0.0
23/03:30pm 17.6 18.8 13.9 79 2.2 CALM 0 0 0 0 1023.7 1022.7 0.0
23/03:00pm 16.6 17.8 13.7 83 1.7 CALM 0 0 0 0 1023.7 1022.7 0.0
23/02:30pm 16.9 17.9 13.2 79 2.1 CALM 0 0 0 0 1023.8 1022.8 0.0
23/02:00pm 17.1 18.0 12.8 76 2.5 CALM 0 0 0 0 1023.9 1022.9 0.0
23/01:30pm 17.6 18.5 12.9 74 2.7 CALM 0 0 0 0 1024.0 1023.0 0.0
23/01:00pm 16.9 17.7 12.6 76 2.4 CALM 0 0 0 0 1024.2 1023.2 0.0
23/12:30pm 16.5 17.2 12.3 76 2.4 CALM 0 0 0 0 1024.6 1023.5 0.0
23/12:00pm 17.0 17.7 12.1 73 2.8 CALM 0 0 0 0 1024.9 1023.8 0.0
23/11:30am 17.7 18.5 12.4 71 3.0 CALM 0 0 0 0 1025.2 1024.2 0.0
23/11:00am 17.8 18.6 12.5 71 3.0 CALM 0 0 0 0 1025.5 1024.5 0.0
23/10:30am 17.8 18.6 12.5 71 3.0 CALM 0 4 0 2 1025.6 1024.6 0.0
23/10:00am 17.9 18.4 12.8 72 2.9 ENE 2 6 1 3 1025.7 1024.7 0.0
23/09:30am 16.7 16.5 11.8 73 2.8 E 4 6 2 3 1025.8 1024.8 0.0
23/09:00am 16.1 16.5 11.3 73 2.7 CALM 0 0 0 0 1025.9 1024.9 11.0
23/08:30am 14.7 14.8 10.3 75 2.4 CALM 0 0 0 0 1025.8 1024.8 11.0

Other Formats:

Comma delimited format used in spreadsheet applications
http://www.bom.gov.au/fwo/IDV60801/IDV60801.94914.axf

JavaScript Object Notation format (JSON) in row-major order
http://www.bom.gov.au/fwo/IDV60801/IDV60801.94914.json